地図

経路データ

SID SEASON NUMBER BASIN SUBBASIN NAME ISO_TIME NATURE LAT LON WMO_WIND WMO_PRES WMO_AGENCY TRACK_TYPE DIST2LAND LANDFALL IFLAG USA_AGENCY USA_ATCF_ID USA_LAT USA_LON USA_RECORD USA_STATUS USA_WIND USA_PRES USA_SSHS USA_R34_NE USA_R34_SE USA_R34_SW USA_R34_NW USA_R50_NE USA_R50_SE USA_R50_SW USA_R50_NW USA_R64_NE USA_R64_SE USA_R64_SW USA_R64_NW USA_POCI USA_ROCI USA_RMW USA_EYE TOKYO_LAT TOKYO_LON TOKYO_GRADE TOKYO_WIND TOKYO_PRES TOKYO_R50_DIR TOKYO_R50_LONG TOKYO_R50_SHORT TOKYO_R30_DIR TOKYO_R30_LONG TOKYO_R30_SHORT TOKYO_LAND CMA_LAT CMA_LON CMA_CAT CMA_WIND CMA_PRES HKO_LAT HKO_LON HKO_CAT HKO_WIND HKO_PRES NEWDELHI_LAT NEWDELHI_LON NEWDELHI_GRADE NEWDELHI_WIND NEWDELHI_PRES NEWDELHI_CI NEWDELHI_DP NEWDELHI_POCI REUNION_LAT REUNION_LON REUNION_TYPE REUNION_WIND REUNION_PRES REUNION_TNUM REUNION_CI REUNION_RMW REUNION_R34_NE REUNION_R34_SE REUNION_R34_SW REUNION_R34_NW REUNION_R50_NE REUNION_R50_SE REUNION_R50_SW REUNION_R50_NW REUNION_R64_NE REUNION_R64_SE REUNION_R64_SW REUNION_R64_NW BOM_LAT BOM_LON BOM_TYPE BOM_WIND BOM_PRES BOM_TNUM BOM_CI BOM_RMW BOM_R34_NE BOM_R34_SE BOM_R34_SW BOM_R34_NW BOM_R50_NE BOM_R50_SE BOM_R50_SW BOM_R50_NW BOM_R64_NE BOM_R64_SE BOM_R64_SW BOM_R64_NW BOM_ROCI BOM_POCI BOM_EYE BOM_POS_METHOD BOM_PRES_METHOD NADI_LAT NADI_LON NADI_CAT NADI_WIND NADI_PRES WELLINGTON_LAT WELLINGTON_LON WELLINGTON_WIND WELLINGTON_PRES DS824_LAT DS824_LON DS824_STAGE DS824_WIND DS824_PRES TD9636_LAT TD9636_LON TD9636_STAGE TD9636_WIND TD9636_PRES TD9635_LAT TD9635_LON TD9635_WIND TD9635_PRES TD9635_ROCI NEUMANN_LAT NEUMANN_LON NEUMANN_CLASS NEUMANN_WIND NEUMANN_PRES MLC_LAT MLC_LON MLC_CLASS MLC_WIND MLC_PRES USA_GUST BOM_GUST BOM_GUST_PER REUNION_GUST REUNION_GUST_PER USA_SEAHGT USA_SEARAD_NE USA_SEARAD_SE USA_SEARAD_SW USA_SEARAD_NW STORM_SPEED STORM_DIR
1911203N15117 1911 44 WP MM NOT_NAMED 1911-07-21 16:00:00 NR 15.5000 117.200 main 273 269 __________O___ -1 15.5000 117.200 7 6 13
1911203N15117 1911 44 WP MM NOT_NAMED 1911-07-21 18:00:00 NR 15.6850 117.236 main 269 256 __________P___ -1 15.6850 117.236 7 6 11
1911203N15117 1911 44 WP MM NOT_NAMED 1911-07-21 21:00:00 NR 15.9557 117.290 main 256 256 __________P___ -1 15.9557 117.290 7 5 10
1911203N15117 1911 44 WP MM NOT_NAMED 1911-07-22 00:00:00 NR 16.2087 117.341 main 257 248 __________P___ -1 16.2087 117.341 7 5 11
1911203N15117 1911 44 WP MM NOT_NAMED 1911-07-22 03:00:00 NR 16.4333 117.386 main 249 249 __________P___ -1 16.4333 117.386 7 4 10
1911203N15117 1911 44 WP MM NOT_NAMED 1911-07-22 04:00:00 NR 16.5000 117.400 main 251 251 __________O___ -1 16.5000 117.400 3 4 10
1911203N15117 1911 44 WP MM NOT_NAMED 1911-07-22 06:00:00 NR 16.6202 117.425 main 254 247 __________P___ -1 16.6202 117.425 3 3 10
1911203N15117 1911 44 WP MM NOT_NAMED 1911-07-22 09:00:00 NR 16.7752 117.456 main 251 251 __________P___ -1 16.7752 117.456 3 3 11
1911203N15117 1911 44 WP MM NOT_NAMED 1911-07-22 12:00:00 NR 16.9138 117.480 main 254 254 __________P___ -1 16.9138 117.480 3 3 9
1911203N15117 1911 44 WP MM NOT_NAMED 1911-07-22 15:00:00 NR 17.0516 117.496 main 260 260 __________P___ -1 17.0516 117.496 3 3 0
1911203N15117 1911 44 WP MM NOT_NAMED 1911-07-22 16:00:00 NR 17.1000 117.500 main 260 260 __________O___ -1 17.1000 117.500 4 3 7
1911203N15117 1911 44 WP MM NOT_NAMED 1911-07-22 18:00:00 NR 17.2136 117.506 main 264 264 __________P___ -1 17.2136 117.506 4 4 3
1911203N15117 1911 44 WP MM NOT_NAMED 1911-07-22 21:00:00 NR 17.3903 117.508 main 274 274 __________P___ -1 17.3903 117.508 4 4 357
1911203N15117 1911 44 WP MM NOT_NAMED 1911-07-23 00:00:00 NR 17.5691 117.505 main 284 284 __________P___ -1 17.5691 117.505 4 4 357
1911203N15117 1911 44 WP MM NOT_NAMED 1911-07-23 03:00:00 NR 17.7438 117.501 main 290 296 __________P___ -1 17.7438 117.501 4 3 0
1911203N15117 1911 44 WP MM NOT_NAMED 1911-07-23 04:00:00 NR 17.8000 117.500 main 296 296 __________O___ -1 17.8000 117.500 4 3 8
1911203N15117 1911 44 WP MM NOT_NAMED 1911-07-23 06:00:00 NR 17.9005 117.503 main 298 298 __________P___ -1 17.9005 117.503 4 3 0
1911203N15117 1911 44 WP MM NOT_NAMED 1911-07-23 09:00:00 NR 18.0447 117.507 main 299 301 __________P___ -1 18.0447 117.507 4 3 0
1911203N15117 1911 44 WP MM NOT_NAMED 1911-07-23 12:00:00 NR 18.1896 117.508 main 303 303 __________P___ -1 18.1896 117.508 4 3 0
1911203N15117 1911 44 WP MM NOT_NAMED 1911-07-23 15:00:00 NR 18.3445 117.503 main 306 309 __________P___ -1 18.3445 117.503 4 3 0
1911203N15117 1911 44 WP MM NOT_NAMED 1911-07-23 16:00:00 NR 18.4000 117.500 main 309 309 __________O___ -1 18.4000 117.500 4 4 353
1911203N15117 1911 44 WP MM NOT_NAMED 1911-07-23 18:00:00 NR 18.5245 117.492 main 312 312 __________P___ -1 18.5245 117.492 4 4 0
1911203N15117 1911 44 WP MM NOT_NAMED 1911-07-23 21:00:00 NR 18.7240 117.473 main 320 320 __________P___ -1 18.7240 117.473 4 4 355
1911203N15117 1911 44 WP MM NOT_NAMED 1911-07-24 00:00:00 NR 18.9304 117.447 main 338 338 __________P___ -1 18.9304 117.447 4 4 353
1911203N15117 1911 44 WP MM NOT_NAMED 1911-07-24 03:00:00 NR 19.1342 117.413 main 345 345 __________P___ -1 19.1342 117.413 4 4 354
1911203N15117 1911 44 WP MM NOT_NAMED 1911-07-24 04:00:00 NR 19.2000 117.400 main 348 348 __________O___ -1 19.2000 117.400 4 4 348
1911203N15117 1911 44 WP MM NOT_NAMED 1911-07-24 06:00:00 NR 19.3276 117.378 main 351 351 __________P___ -1 19.3276 117.378 4 4 349
1911203N15117 1911 44 WP MM NOT_NAMED 1911-07-24 09:00:00 NR 19.5128 117.338 main 368 367 __________P___ -1 19.5128 117.338 4 4 346
1911203N15117 1911 44 WP MM NOT_NAMED 1911-07-24 12:00:00 NR 19.6879 117.288 main 367 354 __________P___ -1 19.6879 117.288 4 4 343
1911203N15117 1911 44 WP MM NOT_NAMED 1911-07-24 15:00:00 NR 19.8496 117.225 main 354 343 __________P___ -1 19.8496 117.225 4 3 339
1911203N15117 1911 44 WP MM NOT_NAMED 1911-07-24 16:00:00 NR 19.9000 117.200 main 343 329 __________O___ -1 19.9000 117.200 4 3 329
1911203N15117 1911 44 WP MM NOT_NAMED 1911-07-24 18:00:00 NR 19.9895 117.145 main 329 315 __________P___ -1 19.9895 117.145 4 3 326
1911203N15117 1911 44 WP MM NOT_NAMED 1911-07-24 21:00:00 NR 20.1110 117.049 main 315 301 __________P___ -1 20.1110 117.049 4 3 322
1911203N15117 1911 44 WP MM NOT_NAMED 1911-07-25 00:00:00 NR 20.2284 116.944 main 301 277 __________P___ -1 20.2284 116.944 4 3 320
1911203N15117 1911 44 WP MM NOT_NAMED 1911-07-25 03:00:00 NR 20.3541 116.836 main 277 277 __________P___ -1 20.3541 116.836 4 3 321
1911203N15117 1911 44 WP MM NOT_NAMED 1911-07-25 04:00:00 NR 20.4000 116.800 main 277 262 __________O___ -1 20.4000 116.800 4 4 331
1911203N15117 1911 44 WP MM NOT_NAMED 1911-07-25 06:00:00 NR 20.5131 116.739 main 262 238 __________P___ -1 20.5131 116.739 4 4 334
1911203N15117 1911 44 WP MM NOT_NAMED 1911-07-25 09:00:00 NR 20.6955 116.647 main 238 213 __________P___ -1 20.6955 116.647 4 4 334
1911203N15117 1911 44 WP MM NOT_NAMED 1911-07-25 12:00:00 NR 20.8794 116.549 main 213 199 __________P___ -1 20.8794 116.549 4 4 331
1911203N15117 1911 44 WP MM NOT_NAMED 1911-07-25 15:00:00 NR 21.0492 116.440 main 199 189 __________P___ -1 21.0492 116.440 4 4 328
1911203N15117 1911 44 WP MM NOT_NAMED 1911-07-25 16:00:00 NR 21.1000 116.400 main 189 175 __________O___ -1 21.1000 116.400 4 4 324
1911203N15117 1911 44 WP MM NOT_NAMED 1911-07-25 18:00:00 NR 21.1889 116.327 main 175 161 __________P___ -1 21.1889 116.327 4 3 319
1911203N15117 1911 44 WP MM NOT_NAMED 1911-07-25 21:00:00 NR 21.3035 116.205 main 161 148 __________P___ -1 21.3035 116.205 4 3 310
1911203N15117 1911 44 WP MM NOT_NAMED 1911-07-26 00:00:00 NR 21.3985 116.058 main 148 134 __________P___ -1 21.3985 116.058 4 4 299
1911203N15117 1911 44 WP MM NOT_NAMED 1911-07-26 03:00:00 NR 21.4769 115.873 main 134 134 __________P___ -1 21.4769 115.873 4 4 293
1911203N15117 1911 44 WP MM NOT_NAMED 1911-07-26 04:00:00 NR 21.5000 115.800 main 134 133 __________O___ -1 21.5000 115.800 4 5 285
1911203N15117 1911 44 WP MM NOT_NAMED 1911-07-26 06:00:00 NR 21.5397 115.629 main 133 108 __________P___ -1 21.5397 115.629 4 5 281
1911203N15117 1911 44 WP MM NOT_NAMED 1911-07-26 09:00:00 NR 21.5864 115.334 main 108 101 __________P___ -1 21.5864 115.334 4 6 279
1911203N15117 1911 44 WP MM NOT_NAMED 1911-07-26 12:00:00 NR 21.6287 115.017 main 101 78 __________P___ -1 21.6287 115.017 4 6 279
1911203N15117 1911 44 WP MM NOT_NAMED 1911-07-26 15:00:00 NR 21.6792 114.701 main 78 73 __________P___ -1 21.6792 114.701 4 6 280
1911203N15117 1911 44 WP MM NOT_NAMED 1911-07-26 16:00:00 NR 21.7000 114.600 main 73 67 __________O___ -1 21.7000 114.600 4 6 285
1911203N15117 1911 44 WP MM NOT_NAMED 1911-07-26 18:00:00 NR 21.7496 114.410 main 67 55 __________P___ -1 21.7496 114.410 4 5 289
1911203N15117 1911 44 WP MM NOT_NAMED 1911-07-26 21:00:00 NR 21.8409 114.148 main 59 49 __________P___ -1 21.8409 114.148 4 5 293
1911203N15117 1911 44 WP MM NOT_NAMED 1911-07-27 00:00:00 NR 21.9469 113.906 main 53 23 __________P___ -1 21.9469 113.906 4 5 297
1911203N15117 1911 44 WP MM NOT_NAMED 1911-07-27 03:00:00 NR 22.0612 113.676 main 23 15 __________P___ -1 22.0612 113.676 4 5 298
1911203N15117 1911 44 WP MM NOT_NAMED 1911-07-27 04:00:00 NR 22.1000 113.600 main 15 __________O___ -1 22.1000 113.600 4 5 299

デジタル台風データ・検索

IBTrACS Databaseについて

本データベースは、米国NOAAが公開する1842年以降の世界の熱帯低気圧のベストトラックデータアーカイブInternational Best Track Archive for Climate Stewardship (IBTrACS)を、ウェブで閲覧しやすい形式に変換したものです。

最終更新日:2021-10-21